Terminal Aerodrome Forecast
Issued by NWS

Home | Current Version | Previous Version | Text Only | Print | Product List | Glossary On
Versions: 1 2 3 4 5 6 7 8 9 10 11 12 13
000
FTUS43 KDTX 242320
TAFMBS
TAF
KMBS 242320Z 2500/2524 06006KT P6SM -SHRA BKN070 OVC100
     FM250600 15006KT P6SM BKN080 OVC120
     FM251100 18012G18KT P6SM SCT080 BKN120
     FM251400 21018G26KT P6SM SCT040 BKN080
     FM251700 22022G29KT P6SM -SHRA BKN040 OVC080=

USA.gov is the U.S. government's official web portal to all federal, state and local government web resources and services.